Grocka — YT2457 — position and weather

sailwx.info

Track history (hours):
 
Tides and Currents Weather Stations Pressure Air Temp Water Temp Dewpoint Dewpoint Depression Visibility Wind Speed Wind Dir Waves Ship Positions

Grocka

Last reported at 2018-Jul-22 18:34 UTC. Time now 2018-Jul-22 21:36 UTC.
Position N 44°50' E 020°29'.

Length 126 m; draft 2.2 m.

Type: Ship. MMSI: 279202457.

Date/timePositionNaut miles runAvg speedWind from/ knotsBaromVisibWave heightAir tempDewpointWater temp
2018-Jul-22 18:34N 44°50' E 020°29'0 0.0
2018-Jul-22 18:30N 44°50' E 020°29'0 0.0
2018-Jul-22 18:01N 44°50' E 020°29'0 0.0
2018-Jul-22 17:31N 44°50' E 020°29'0 0.0
2018-Jul-22 17:01N 44°50' E 020°29'0 0.0
2018-Jul-22 16:31N 44°50' E 020°29'0 0.0
2018-Jul-22 16:01N 44°50' E 020°29'0 0.0
2018-Jul-22 15:01N 44°50' E 020°29'0 0.0
2018-Jul-22 14:30N 44°50' E 020°29'0 0.0
2018-Jul-22 14:01N 44°50' E 020°29'0 0.0
2018-Jul-22 13:31N 44°50' E 020°29'0 0.0
2018-Jul-22 13:01N 44°50' E 020°29'0 0.0
2018-Jul-22 12:31N 44°50' E 020°29'0 0.0
2018-Jul-22 11:50N 44°50' E 020°29'0 0.0
2018-Jul-22 11:30N 44°50' E 020°29'0 0.0
2018-Jul-22 11:00N 44°50' E 020°29'0 0.0
2018-Jul-22 10:31N 44°50' E 020°29'0 0.0
2018-Jul-22 10:00N 44°50' E 020°29'0 0.0
2018-Jul-22 09:30N 44°50' E 020°29'0 0.0
2018-Jul-22 08:48N 44°50' E 020°29'0 0.0
2018-Jul-21 18:56N 44°50' E 020°29'0 0.0
2018-Jul-21 18:31N 44°50' E 020°29'0 0.0
2018-Jul-21 18:01N 44°50' E 020°29'0 0.0
2018-Jul-21 17:30N 44°50' E 020°29'0 0.0
2018-Jul-21 17:01N 44°50' E 020°29'0 0.0
2018-Jul-21 16:31N 44°50' E 020°29'0 0.0
2018-Jul-21 16:01N 44°50' E 020°29'0 0.4
2018-Jul-21 15:31N 44°50' E 020°30'3 5.0
2018-Jul-21 15:01N 44°50' E 020°26'3 6.3
2018-Jul-21 14:30N 44°52' E 020°23'6 6.2
2018-Jul-21 13:30N 44°57' E 020°18'3 5.6
2018-Jul-21 13:00N 44°60' E 020°19'3 5.7
2018-Jul-21 12:30N 45°02' E 020°22'3 6.3
2018-Jul-21 12:00N 45°04' E 020°20'3 6.4
2018-Jul-21 11:30N 45°07' E 020°17'3 5.8
2018-Jul-21 11:01N 45°10' E 020°17'2 4.9
2018-Jul-21 10:30N 45°12' E 020°19'8 5.1
2018-Jul-21 08:58N 45°19' E 020°15'2 3.7
2018-Jul-21 08:30N 45°21' E 020°15'3 5.3
2018-Jul-21 08:00N 45°23' E 020°12'4 5.0
2018-Jul-21 07:11N 45°27' E 020°13'1 5.6
2018-Jul-21 07:00N 45°27' E 020°12'4 5.6
2018-Jul-21 06:14N 45°31' E 020°07'1 5.7
2018-Jul-21 06:00N 45°32' E 020°06'3 5.2
2018-Jul-21 05:30N 45°34' E 020°07'1 1.0
2018-Jul-21 05:00N 45°35' E 020°07'0 0.3
2018-Jul-21 04:29N 45°35' E 020°07'1 0.5
2018-Jul-21 03:32N 45°35' E 020°08'1 0.1
2018-Jul-20 18:55N 45°36' E 020°07'2 5.2
2018-Jul-20 18:31N 45°35' E 020°05'2 3.3
2018-Jul-20 17:59N 45°37' E 020°05'3 5.5
2018-Jul-20 17:30N 45°39' E 020°07'2 4.5
2018-Jul-20 17:00N 45°41' E 020°06'4 0.2
2018-Jul-19 17:31N 45°44' E 020°10'0 3.8
2018-Jul-19 17:30N 45°44' E 020°10'4 2.5
2018-Jul-19 15:57N 45°41' E 020°06'3 2.7
2018-Jul-19 15:00N 45°39' E 020°06'2 3.4
2018-Jul-19 14:30N 45°37' E 020°05'3 1.5
2018-Jul-19 12:44N 45°35' E 020°08'0 1.8
2018-Jul-19 12:31N 45°35' E 020°08'1 1.2
2018-Jul-19 12:00N 45°34' E 020°07'1 0.9
2018-Jul-19 11:26N 45°35' E 020°07'0 0.2
2018-Jul-19 10:50N 45°35' E 020°08'0 0.0
2018-Jul-19 10:30N 45°35' E 020°08'0 0.0
2018-Jul-19 10:00N 45°35' E 020°08'0 0.0
2018-Jul-19 09:29N 45°35' E 020°08'1 0.9
2018-Jul-19 08:51N 45°34' E 020°07'1 1.8
2018-Jul-19 08:30N 45°34' E 020°06'2 2.8
2018-Jul-19 07:44N 45°32' E 020°06'1 3.1
2018-Jul-19 07:30N 45°31' E 020°07'2 3.0
2018-Jul-19 06:59N 45°30' E 020°08'1 3.1
2018-Jul-19 06:31N 45°29' E 020°10'2 3.3
2018-Jul-19 06:00N 45°28' E 020°11'2 3.2
2018-Jul-19 05:22N 45°26' E 020°13'2 4.7
2018-Jul-19 05:00N 45°24' E 020°13'1 2.2
2018-Jul-19 04:30N 45°24' E 020°12'2 3.1
2018-Jul-19 04:00N 45°22' E 020°13'2 3.1
2018-Jul-19 03:30N 45°21' E 020°15'2 3.1
2018-Jul-19 02:59N 45°20' E 020°16'1 2.8
2018-Jul-19 02:30N 45°19' E 020°15'6 2.7
2018-Jul-19 00:24N 45°14' E 020°19'1 2.9
2018-Jul-19 00:00N 45°13' E 020°19'2 3.2
2018-Jul-18 23:31N 45°11' E 020°19'1 2.9
2018-Jul-18 23:00N 45°10' E 020°17'1 2.9
2018-Jul-18 22:31N 45°09' E 020°17'1 2.4
2018-Jul-18 22:00N 45°08' E 020°17'1 2.2
2018-Jul-18 21:30N 45°07' E 020°18'1 2.1
2018-Jul-18 21:00N 45°06' E 020°18'1 1.9
2018-Jul-18 20:23N 45°05' E 020°19'1 2.1
2018-Jul-18 20:00N 45°04' E 020°20'1 2.2
2018-Jul-18 19:30N 45°03' E 020°21'1 2.1
2018-Jul-18 19:00N 45°02' E 020°22'1 2.1
2018-Jul-18 18:31N 45°01' E 020°22'1 2.3
2018-Jul-18 18:00N 45°00' E 020°21'1 2.4
2018-Jul-18 17:30N 44°60' E 020°20'1 2.5
2018-Jul-18 17:01N 44°59' E 020°18'1 2.4
2018-Jul-18 16:30N 44°58' E 020°17'1 2.5
2018-Jul-18 16:00N 44°57' E 020°18'1 2.8
2018-Jul-18 15:30N 44°56' E 020°19'1 2.6
2018-Jul-18 15:01N 44°55' E 020°20'1 2.5
2018-Jul-18 14:31N 44°54' E 020°21'2 2.4
2018-Jul-18 13:30N 44°52' E 020°23'1 2.1
2018-Jul-18 13:01N 44°51' E 020°24'1 2.5
2018-Jul-18 12:30N 44°51' E 020°26'1 2.6
2018-Jul-18 12:01N 44°50' E 020°27'1 2.6
2018-Jul-18 11:30N 44°50' E 020°29'0 0.4
2018-Jul-18 10:29N 44°50' E 020°29'0 0.0
2018-Jul-18 10:01N 44°50' E 020°29'0 0.0
2018-Jul-18 08:55N 44°50' E 020°29'0 0.1
2018-Jul-18 08:30N 44°50' E 020°29'0 0.1
2018-Jul-18 08:01N 44°50' E 020°29'0 0.0
2018-Jul-18 07:31N 44°50' E 020°29'0 0.0
2018-Jul-18 07:01N 44°50' E 020°29'0 0.0
2018-Jul-18 06:31N 44°50' E 020°29'0 0.0
2018-Jul-18 06:01N 44°50' E 020°29'0 0.0
2018-Jul-18 05:31N 44°50' E 020°29'0 0.0
2018-Jul-18 05:01N 44°50' E 020°29'0 0.0
2018-Jul-18 04:30N 44°50' E 020°29'0 0.0
2018-Jul-18 04:01N 44°50' E 020°29'0 0.6
2018-Jul-18 03:30N 44°50' E 020°30'1 1.8
2018-Jul-18 03:01N 44°50' E 020°31'1 2.5
2018-Jul-18 02:30N 44°50' E 020°33'1 2.6
2018-Jul-18 02:01N 44°51' E 020°34'1 2.6
2018-Jul-18 01:31N 44°51' E 020°36'1 2.6
2018-Jul-18 01:01N 44°51' E 020°38'1 2.7
2018-Jul-18 00:30N 44°50' E 020°39'1 2.7
2018-Jul-18 00:01N 44°48' E 020°38'1 2.9
2018-Jul-17 23:30N 44°47' E 020°38'2 2.5
2018-Jul-17 22:45N 44°45' E 020°38'1 2.6
2018-Jul-17 22:30N 44°45' E 020°39'2 2.7
2018-Jul-17 21:56N 44°44' E 020°41'1 2.5
2018-Jul-17 21:30N 44°43' E 020°41'1 2.4
2018-Jul-17 21:01N 44°42' E 020°43'1 2.3
2018-Jul-17 20:30N 44°41' E 020°44'1 2.7
2018-Jul-17 20:00N 44°40' E 020°45'1 2.7
2018-Jul-17 19:31N 44°40' E 020°47'1 2.7
2018-Jul-17 19:01N 44°40' E 020°49'1 2.8
2018-Jul-17 18:30N 44°40' E 020°51'2 3.0
2018-Jul-17 18:00N 44°40' E 020°53'1 2.9
2018-Jul-17 17:30N 44°40' E 020°55'1 2.8
2018-Jul-17 17:00N 44°41' E 020°56'1 2.7
2018-Jul-17 16:31N 44°42' E 020°58'1 2.6
2018-Jul-17 16:00N 44°43' E 020°59'1 2.6
2018-Jul-17 15:31N 44°43' E 021°01'1 2.1
2018-Jul-17 15:00N 44°43' E 021°02'0 0.6
2018-Jul-17 14:30N 44°43' E 021°03'0 0.0
2018-Jul-17 14:00N 44°43' E 021°03'0 0.0
2018-Jul-17 13:31N 44°43' E 021°03'0 0.0
2018-Jul-17 12:59N 44°43' E 021°03'0 0.0
2018-Jul-17 12:31N 44°43' E 021°03'0 0.6
2018-Jul-17 12:00N 44°43' E 021°03'0 0.6
2018-Jul-17 11:30N 44°43' E 021°03'0 0.6
2018-Jul-17 11:01N 44°43' E 021°03'0 0.0
2018-Jul-17 10:29N 44°43' E 021°03'0 0.0
2018-Jul-17 10:01N 44°43' E 021°03'0 0.0
2018-Jul-17 09:30N 44°43' E 021°03'0 0.0
2018-Jul-17 08:59N 44°43' E 021°03'3 0.7
2018-Jul-17 04:11N 44°44' E 020°59'0 0.0
2018-Jul-17 04:00N 44°44' E 020°59'0 0.0
2018-Jul-17 03:30N 44°44' E 020°59'0 0.0
2018-Jul-17 03:00N 44°44' E 020°59'0 0.0
2018-Jul-17 02:30N 44°44' E 020°59'0 0.0
2018-Jul-17 02:00N 44°44' E 020°59'0 0.0
2018-Jul-17 01:30N 44°44' E 020°59'0 0.0
2018-Jul-17 01:00N 44°44' E 020°59'0 0.0
2018-Jul-17 00:30N 44°44' E 020°59'0 0.0
2018-Jul-16 23:30N 44°44' E 020°59'0 0.0
2018-Jul-16 23:00N 44°44' E 020°59'0 0.0
2018-Jul-16 22:30N 44°44' E 020°59'0 0.0
2018-Jul-16 21:59N 44°44' E 020°59'0 0.0
2018-Jul-16 21:30N 44°44' E 020°59'0 0.0
2018-Jul-16 21:00N 44°44' E 020°59'0 0.0
2018-Jul-16 20:30N 44°44' E 020°59'0 0.0
2018-Jul-16 20:00N 44°44' E 020°59'0 0.0
2018-Jul-16 19:30N 44°44' E 020°59'0 0.0
2018-Jul-16 19:00N 44°44' E 020°59'0 0.0
2018-Jul-16 18:30N 44°44' E 020°59'0 0.0
2018-Jul-16 18:00N 44°44' E 020°59'0 0.0
2018-Jul-16 17:30N 44°44' E 020°59'0 0.0
2018-Jul-16 17:00N 44°44' E 020°59'0 0.0
2018-Jul-16 16:30N 44°44' E 020°59'0 0.0
2018-Jul-16 16:00N 44°44' E 020°59'0 0.0
2018-Jul-16 15:30N 44°44' E 020°59'0 0.0
2018-Jul-16 15:00N 44°44' E 020°59'0 0.0
2018-Jul-16 14:30N 44°44' E 020°59'0 0.0
2018-Jul-16 14:00N 44°44' E 020°59'0 0.0
2018-Jul-16 13:30N 44°44' E 020°59'0 0.0
2018-Jul-16 13:00N 44°44' E 020°59'0 0.0
2018-Jul-16 12:30N 44°44' E 020°59'0 0.0
2018-Jul-16 12:00N 44°44' E 020°59'0 0.0
2018-Jul-16 11:30N 44°44' E 020°59'0 0.0
2018-Jul-16 10:43N 44°44' E 020°59'0 0.0
2018-Jul-16 10:29N 44°44' E 020°59'0 0.0
2018-Jul-16 10:01N 44°44' E 020°59'0 0.0
2018-Jul-16 09:30N 44°44' E 020°59'0 0.0
2018-Jul-16 09:00N 44°44' E 020°59'0 0.0
2018-Jul-16 08:26N 44°44' E 020°59'0 0.0
2018-Jul-16 07:59N 44°44' E 020°59'0 0.0
2018-Jul-16 07:30N 44°44' E 020°59'1 1.1
2018-Jul-16 07:00N 44°43' E 020°59'2 4.9
2018-Jul-16 06:30N 44°43' E 021°03'0 0.6
2018-Jul-16 06:01N 44°43' E 021°03'0 0.0
2018-Jul-16 05:31N 44°43' E 021°03'0 0.0
2018-Jul-16 05:01N 44°43' E 021°03'0 0.0
2018-Jul-16 04:31N 44°43' E 021°03'0 0.0
2018-Jul-16 04:01N 44°43' E 021°03'0 0.0
2018-Jul-16 03:30N 44°43' E 021°03'0 0.0
2018-Jul-16 03:01N 44°43' E 021°03'0 0.0
2018-Jul-16 02:31N 44°43' E 021°03'0 0.0
2018-Jul-16 01:57N 44°43' E 021°03'0 0.0
2018-Jul-16 01:31N 44°43' E 021°03'0 0.0
2018-Jul-16 01:01N 44°43' E 021°03'1 2.7
2018-Jul-16 00:29N 44°43' E 021°01'6 6.2
2018-Jul-15 23:33N 44°40' E 020°54'8 6.1
2018-Jul-15 22:13N 44°41' E 020°43'3 6.3
2018-Jul-15 21:44N 44°44' E 020°40'1 6.6
2018-Jul-15 21:30N 44°45' E 020°39'3 6.0
2018-Jul-15 21:01N 44°48' E 020°38'3 6.0
2018-Jul-15 20:31N 44°51' E 020°38'3 5.9
2018-Jul-15 20:00N 44°51' E 020°34'3 6.2
2018-Jul-15 19:31N 44°50' E 020°30'3 6.4
2018-Jul-15 19:01N 44°51' E 020°26'3 6.6
2018-Jul-15 18:30N 44°53' E 020°22'3 6.5
2018-Jul-15 18:00N 44°55' E 020°20'3 6.8
2018-Jul-15 17:31N 44°58' E 020°17'3 6.1
2018-Jul-15 17:00N 45°00' E 020°21'3 6.0
2018-Jul-15 16:30N 45°03' E 020°21'3 7.0
2018-Jul-15 16:00N 45°06' E 020°18'3 6.2
2018-Jul-15 15:29N 45°09' E 020°17'2 4.5
2018-Jul-15 14:59N 45°11' E 020°19'3 5.8
2018-Jul-15 14:30N 45°14' E 020°19'6 5.3
2018-Jul-15 13:25N 45°19' E 020°15'2 4.2
2018-Jul-15 12:59N 45°21' E 020°16'3 5.6
2018-Jul-15 12:29N 45°22' E 020°12'3 5.3
2018-Jul-15 12:00N 45°25' E 020°13'3 5.3
2018-Jul-15 11:30N 45°27' E 020°12'4 5.9
2018-Jul-15 10:49N 45°30' E 020°08'3 5.9
2018-Jul-15 10:19N 45°33' E 020°06'2 4.9
2018-Jul-15 10:00N 45°34' E 020°07'1 1.4
2018-Jul-15 09:18N 45°35' E 020°08'1 1.7
2018-Jul-15 08:50N 45°34' E 020°07'1 1.3
2018-Jul-15 08:14N 45°35' E 020°08'2 2.9
2018-Jul-15 07:39N 45°36' E 020°06'1 5.3
2018-Jul-15 07:30N 45°35' E 020°05'2 3.6
2018-Jul-15 06:56N 45°37' E 020°05'3 4.7
2018-Jul-15 06:13N 45°41' E 020°05'1 5.1
2018-Jul-15 06:01N 45°42' E 020°06'2 3.5
2018-Jul-15 05:30N 45°43' E 020°08'3 4.4
2018-Jul-15 04:47N 45°46' E 020°09'2 5.8
2018-Jul-15 04:30N 45°47' E 020°09'5 4.5
2018-Jul-15 03:23N 45°52' E 020°06'3 0.1
2018-Jul-14 04:11N 45°55' E 020°06'2 2.0
2018-Jul-14 03:16N 45°53' E 020°08'1 2.6
2018-Jul-14 03:00N 45°53' E 020°07'3 1.7
2018-Jul-14 01:23N 45°50' E 020°07'3 2.6
2018-Jul-14 00:25N 45°48' E 020°09'1 2.8
2018-Jul-13 23:59N 45°47' E 020°09'1 2.6
2018-Jul-13 23:30N 45°45' E 020°09'1 2.5
2018-Jul-13 22:58N 45°44' E 020°10'1 2.6
2018-Jul-13 22:31N 45°43' E 020°09'1 2.7
2018-Jul-13 22:00N 45°43' E 020°07'1 1.7
2018-Jul-13 21:21N 45°42' E 020°06'1 2.7
2018-Jul-13 21:01N 45°41' E 020°06'1 2.1
2018-Jul-13 20:30N 45°40' E 020°06'1 2.5
2018-Jul-13 20:00N 45°39' E 020°07'1 2.8
2018-Jul-13 19:30N 45°38' E 020°06'1 2.8
2018-Jul-13 19:00N 45°37' E 020°05'1 2.1
2018-Jul-13 18:30N 45°36' E 020°04'1 2.5
2018-Jul-13 18:00N 45°35' E 020°05'1 2.7
2018-Jul-13 17:30N 45°36' E 020°07'1 2.3
2018-Jul-13 17:01N 45°35' E 020°08'0 0.2
2018-Jul-13 16:30N 45°35' E 020°08'1 0.9
2018-Jul-13 15:52N 45°35' E 020°07'0 0.6
2018-Jul-13 15:15N 45°35' E 020°08'1 0.9
2018-Jul-13 13:59N 45°34' E 020°06'2 2.5
2018-Jul-13 13:22N 45°32' E 020°06'1 2.4
2018-Jul-13 12:57N 45°32' E 020°06'1 2.5
2018-Jul-13 12:30N 45°31' E 020°07'1 2.5
2018-Jul-13 11:55N 45°30' E 020°09'1 2.8
2018-Jul-13 11:30N 45°29' E 020°10'2 2.8
2018-Jul-13 10:53N 45°27' E 020°11'1 2.9
2018-Jul-13 10:30N 45°27' E 020°13'2 2.7
2018-Jul-13 09:44N 45°25' E 020°13'1 3.0
2018-Jul-13 09:30N 45°24' E 020°13'1 2.7
2018-Jul-13 09:00N 45°23' E 020°12'1 2.8
2018-Jul-13 08:31N 45°22' E 020°13'1 2.9
2018-Jul-13 08:00N 45°21' E 020°15'1 2.5
2018-Jul-13 07:30N 45°20' E 020°16'2 2.8
2018-Jul-13 06:41N 45°18' E 020°14'0 1.0
2018-Jul-13 06:29N 45°18' E 020°14'0 1.0
2018-Jul-13 06:00N 45°17' E 020°14'0 1.0
2018-Jul-13 05:31N 45°18' E 020°14'0 0.0
2018-Jul-13 05:00N 45°18' E 020°14'0 0.0
2018-Jul-13 04:30N 45°18' E 020°14'  
Track history (hours):
 
Tides and Currents Weather Stations Pressure Air Temp Water Temp Dewpoint Dewpoint Depression Visibility Wind Speed Wind Dir Waves Ship Positions

Grocka

Last reported at 2018-Jul-22 18:34 UTC. Time now 2018-Jul-22 21:36 UTC.
Position N 44°50' E 020°29'.

Length 126 m; draft 2.2 m.

Type: Ship. MMSI: 279202457.

Date/timePositionNaut miles runAvg speedWind from/ knotsBaromVisibWave heightAir tempDewpointWater temp
2018-Jul-22 18:34N 44°50' E 020°29'0 0.0
2018-Jul-22 18:30N 44°50' E 020°29'0 0.0
2018-Jul-22 18:01N 44°50' E 020°29'0 0.0
2018-Jul-22 17:31N 44°50' E 020°29'0 0.0
2018-Jul-22 17:01N 44°50' E 020°29'0 0.0
2018-Jul-22 16:31N 44°50' E 020°29'0 0.0
2018-Jul-22 16:01N 44°50' E 020°29'0 0.0
2018-Jul-22 15:01N 44°50' E 020°29'0 0.0
2018-Jul-22 14:30N 44°50' E 020°29'0 0.0
2018-Jul-22 14:01N 44°50' E 020°29'0 0.0
2018-Jul-22 13:31N 44°50' E 020°29'0 0.0
2018-Jul-22 13:01N 44°50' E 020°29'0 0.0
2018-Jul-22 12:31N 44°50' E 020°29'0 0.0
2018-Jul-22 11:50N 44°50' E 020°29'0 0.0
2018-Jul-22 11:30N 44°50' E 020°29'0 0.0
2018-Jul-22 11:00N 44°50' E 020°29'0 0.0
2018-Jul-22 10:31N 44°50' E 020°29'0 0.0
2018-Jul-22 10:00N 44°50' E 020°29'0 0.0
2018-Jul-22 09:30N 44°50' E 020°29'0 0.0
2018-Jul-22 08:48N 44°50' E 020°29'0 0.0
2018-Jul-21 18:56N 44°50' E 020°29'0 0.0
2018-Jul-21 18:31N 44°50' E 020°29'0 0.0
2018-Jul-21 18:01N 44°50' E 020°29'0 0.0
2018-Jul-21 17:30N 44°50' E 020°29'0 0.0
2018-Jul-21 17:01N 44°50' E 020°29'0 0.0
2018-Jul-21 16:31N 44°50' E 020°29'0 0.0
2018-Jul-21 16:01N 44°50' E 020°29'0 0.4
2018-Jul-21 15:31N 44°50' E 020°30'3 5.0
2018-Jul-21 15:01N 44°50' E 020°26'3 6.3
2018-Jul-21 14:30N 44°52' E 020°23'6 6.2
2018-Jul-21 13:30N 44°57' E 020°18'3 5.6
2018-Jul-21 13:00N 44°60' E 020°19'3 5.7
2018-Jul-21 12:30N 45°02' E 020°22'3 6.3
2018-Jul-21 12:00N 45°04' E 020°20'3 6.4
2018-Jul-21 11:30N 45°07' E 020°17'3 5.8
2018-Jul-21 11:01N 45°10' E 020°17'2 4.9
2018-Jul-21 10:30N 45°12' E 020°19'8 5.1
2018-Jul-21 08:58N 45°19' E 020°15'2 3.7
2018-Jul-21 08:30N 45°21' E 020°15'3 5.3
2018-Jul-21 08:00N 45°23' E 020°12'4 5.0
2018-Jul-21 07:11N 45°27' E 020°13'1 5.6
2018-Jul-21 07:00N 45°27' E 020°12'4 5.6
2018-Jul-21 06:14N 45°31' E 020°07'1 5.7
2018-Jul-21 06:00N 45°32' E 020°06'3 5.2
2018-Jul-21 05:30N 45°34' E 020°07'1 1.0
2018-Jul-21 05:00N 45°35' E 020°07'0 0.3
2018-Jul-21 04:29N 45°35' E 020°07'1 0.5
2018-Jul-21 03:32N 45°35' E 020°08'1 0.1
2018-Jul-20 18:55N 45°36' E 020°07'2 5.2
2018-Jul-20 18:31N 45°35' E 020°05'2 3.3
2018-Jul-20 17:59N 45°37' E 020°05'3 5.5
2018-Jul-20 17:30N 45°39' E 020°07'2 4.5
2018-Jul-20 17:00N 45°41' E 020°06'4 0.2
2018-Jul-19 17:31N 45°44' E 020°10'0 3.8
2018-Jul-19 17:30N 45°44' E 020°10'4 2.5
2018-Jul-19 15:57N 45°41' E 020°06'3 2.7
2018-Jul-19 15:00N 45°39' E 020°06'2 3.4
2018-Jul-19 14:30N 45°37' E 020°05'3 1.5
2018-Jul-19 12:44N 45°35' E 020°08'0 1.8
2018-Jul-19 12:31N 45°35' E 020°08'1 1.2
2018-Jul-19 12:00N 45°34' E 020°07'1 0.9
2018-Jul-19 11:26N 45°35' E 020°07'0 0.2
2018-Jul-19 10:50N 45°35' E 020°08'0 0.0
2018-Jul-19 10:30N 45°35' E 020°08'0 0.0
2018-Jul-19 10:00N 45°35' E 020°08'0 0.0
2018-Jul-19 09:29N 45°35' E 020°08'1 0.9
2018-Jul-19 08:51N 45°34' E 020°07'1 1.8
2018-Jul-19 08:30N 45°34' E 020°06'2 2.8
2018-Jul-19 07:44N 45°32' E 020°06'1 3.1
2018-Jul-19 07:30N 45°31' E 020°07'2 3.0
2018-Jul-19 06:59N 45°30' E 020°08'1 3.1
2018-Jul-19 06:31N 45°29' E 020°10'2 3.3
2018-Jul-19 06:00N 45°28' E 020°11'2 3.2
2018-Jul-19 05:22N 45°26' E 020°13'2 4.7
2018-Jul-19 05:00N 45°24' E 020°13'1 2.2
2018-Jul-19 04:30N 45°24' E 020°12'2 3.1
2018-Jul-19 04:00N 45°22' E 020°13'2 3.1
2018-Jul-19 03:30N 45°21' E 020°15'2 3.1
2018-Jul-19 02:59N 45°20' E 020°16'1 2.8
2018-Jul-19 02:30N 45°19' E 020°15'6 2.7
2018-Jul-19 00:24N 45°14' E 020°19'1 2.9
2018-Jul-19 00:00N 45°13' E 020°19'2 3.2
2018-Jul-18 23:31N 45°11' E 020°19'1 2.9
2018-Jul-18 23:00N 45°10' E 020°17'1 2.9
2018-Jul-18 22:31N 45°09' E 020°17'1 2.4
2018-Jul-18 22:00N 45°08' E 020°17'1 2.2
2018-Jul-18 21:30N 45°07' E 020°18'1 2.1
2018-Jul-18 21:00N 45°06' E 020°18'1 1.9
2018-Jul-18 20:23N 45°05' E 020°19'1 2.1
2018-Jul-18 20:00N 45°04' E 020°20'1 2.2
2018-Jul-18 19:30N 45°03' E 020°21'1 2.1
2018-Jul-18 19:00N 45°02' E 020°22'1 2.1
2018-Jul-18 18:31N 45°01' E 020°22'1 2.3
2018-Jul-18 18:00N 45°00' E 020°21'1 2.4
2018-Jul-18 17:30N 44°60' E 020°20'1 2.5
2018-Jul-18 17:01N 44°59' E 020°18'1 2.4
2018-Jul-18 16:30N 44°58' E 020°17'1 2.5
2018-Jul-18 16:00N 44°57' E 020°18'1 2.8
2018-Jul-18 15:30N 44°56' E 020°19'1 2.6
2018-Jul-18 15:01N 44°55' E 020°20'1 2.5
2018-Jul-18 14:31N 44°54' E 020°21'2 2.4
2018-Jul-18 13:30N 44°52' E 020°23'1 2.1
2018-Jul-18 13:01N 44°51' E 020°24'1 2.5
2018-Jul-18 12:30N 44°51' E 020°26'1 2.6
2018-Jul-18 12:01N 44°50' E 020°27'1 2.6
2018-Jul-18 11:30N 44°50' E 020°29'0 0.4
2018-Jul-18 10:29N 44°50' E 020°29'0 0.0
2018-Jul-18 10:01N 44°50' E 020°29'0 0.0
2018-Jul-18 08:55N 44°50' E 020°29'0 0.1
2018-Jul-18 08:30N 44°50' E 020°29'0 0.1
2018-Jul-18 08:01N 44°50' E 020°29'0 0.0
2018-Jul-18 07:31N 44°50' E 020°29'0 0.0
2018-Jul-18 07:01N 44°50' E 020°29'0 0.0
2018-Jul-18 06:31N 44°50' E 020°29'0 0.0
2018-Jul-18 06:01N 44°50' E 020°29'0 0.0
2018-Jul-18 05:31N 44°50' E 020°29'0 0.0
2018-Jul-18 05:01N 44°50' E 020°29'0 0.0
2018-Jul-18 04:30N 44°50' E 020°29'0 0.0
2018-Jul-18 04:01N 44°50' E 020°29'0 0.6
2018-Jul-18 03:30N 44°50' E 020°30'1 1.8
2018-Jul-18 03:01N 44°50' E 020°31'1 2.5
2018-Jul-18 02:30N 44°50' E 020°33'1 2.6
2018-Jul-18 02:01N 44°51' E 020°34'1 2.6
2018-Jul-18 01:31N 44°51' E 020°36'1 2.6
2018-Jul-18 01:01N 44°51' E 020°38'1 2.7
2018-Jul-18 00:30N 44°50' E 020°39'1 2.7
2018-Jul-18 00:01N 44°48' E 020°38'1 2.9
2018-Jul-17 23:30N 44°47' E 020°38'2 2.5
2018-Jul-17 22:45N 44°45' E 020°38'1 2.6
2018-Jul-17 22:30N 44°45' E 020°39'2 2.7
2018-Jul-17 21:56N 44°44' E 020°41'1 2.5
2018-Jul-17 21:30N 44°43' E 020°41'1 2.4
2018-Jul-17 21:01N 44°42' E 020°43'1 2.3
2018-Jul-17 20:30N 44°41' E 020°44'1 2.7
2018-Jul-17 20:00N 44°40' E 020°45'1 2.7
2018-Jul-17 19:31N 44°40' E 020°47'1 2.7
2018-Jul-17 19:01N 44°40' E 020°49'1 2.8
2018-Jul-17 18:30N 44°40' E 020°51'2 3.0
2018-Jul-17 18:00N 44°40' E 020°53'1 2.9
2018-Jul-17 17:30N 44°40' E 020°55'1 2.8
2018-Jul-17 17:00N 44°41' E 020°56'1 2.7
2018-Jul-17 16:31N 44°42' E 020°58'1 2.6
2018-Jul-17 16:00N 44°43' E 020°59'1 2.6
2018-Jul-17 15:31N 44°43' E 021°01'1 2.1
2018-Jul-17 15:00N 44°43' E 021°02'0 0.6
2018-Jul-17 14:30N 44°43' E 021°03'0 0.0
2018-Jul-17 14:00N 44°43' E 021°03'0 0.0
2018-Jul-17 13:31N 44°43' E 021°03'0 0.0
2018-Jul-17 12:59N 44°43' E 021°03'0 0.0
2018-Jul-17 12:31N 44°43' E 021°03'0 0.6
2018-Jul-17 12:00N 44°43' E 021°03'0 0.6
2018-Jul-17 11:30N 44°43' E 021°03'0 0.6
2018-Jul-17 11:01N 44°43' E 021°03'0 0.0
2018-Jul-17 10:29N 44°43' E 021°03'0 0.0
2018-Jul-17 10:01N 44°43' E 021°03'0 0.0
2018-Jul-17 09:30N 44°43' E 021°03'0 0.0
2018-Jul-17 08:59N 44°43' E 021°03'3 0.7
2018-Jul-17 04:11N 44°44' E 020°59'0 0.0
2018-Jul-17 04:00N 44°44' E 020°59'0 0.0
2018-Jul-17 03:30N 44°44' E 020°59'0 0.0
2018-Jul-17 03:00N 44°44' E 020°59'0 0.0
2018-Jul-17 02:30N 44°44' E 020°59'0 0.0
2018-Jul-17 02:00N 44°44' E 020°59'0 0.0
2018-Jul-17 01:30N 44°44' E 020°59'0 0.0
2018-Jul-17 01:00N 44°44' E 020°59'0 0.0
2018-Jul-17 00:30N 44°44' E 020°59'0 0.0
2018-Jul-16 23:30N 44°44' E 020°59'0 0.0
2018-Jul-16 23:00N 44°44' E 020°59'0 0.0
2018-Jul-16 22:30N 44°44' E 020°59'0 0.0
2018-Jul-16 21:59N 44°44' E 020°59'0 0.0
2018-Jul-16 21:30N 44°44' E 020°59'0 0.0
2018-Jul-16 21:00N 44°44' E 020°59'0 0.0
2018-Jul-16 20:30N 44°44' E 020°59'0 0.0
2018-Jul-16 20:00N 44°44' E 020°59'0 0.0
2018-Jul-16 19:30N 44°44' E 020°59'0 0.0
2018-Jul-16 19:00N 44°44' E 020°59'0 0.0
2018-Jul-16 18:30N 44°44' E 020°59'0 0.0
2018-Jul-16 18:00N 44°44' E 020°59'0 0.0
2018-Jul-16 17:30N 44°44' E 020°59'0 0.0
2018-Jul-16 17:00N 44°44' E 020°59'0 0.0
2018-Jul-16 16:30N 44°44' E 020°59'0 0.0
2018-Jul-16 16:00N 44°44' E 020°59'0 0.0
2018-Jul-16 15:30N 44°44' E 020°59'0 0.0
2018-Jul-16 15:00N 44°44' E 020°59'0 0.0
2018-Jul-16 14:30N 44°44' E 020°59'0 0.0
2018-Jul-16 14:00N 44°44' E 020°59'0 0.0
2018-Jul-16 13:30N 44°44' E 020°59'0 0.0
2018-Jul-16 13:00N 44°44' E 020°59'0 0.0
2018-Jul-16 12:30N 44°44' E 020°59'0 0.0
2018-Jul-16 12:00N 44°44' E 020°59'0 0.0
2018-Jul-16 11:30N 44°44' E 020°59'0 0.0
2018-Jul-16 10:43N 44°44' E 020°59'0 0.0
2018-Jul-16 10:29N 44°44' E 020°59'0 0.0
2018-Jul-16 10:01N 44°44' E 020°59'0 0.0
2018-Jul-16 09:30N 44°44' E 020°59'0 0.0
2018-Jul-16 09:00N 44°44' E 020°59'0 0.0
2018-Jul-16 08:26N 44°44' E 020°59'0 0.0
2018-Jul-16 07:59N 44°44' E 020°59'0 0.0
2018-Jul-16 07:30N 44°44' E 020°59'1 1.1
2018-Jul-16 07:00N 44°43' E 020°59'2 4.9
2018-Jul-16 06:30N 44°43' E 021°03'0 0.6
2018-Jul-16 06:01N 44°43' E 021°03'0 0.0
2018-Jul-16 05:31N 44°43' E 021°03'0 0.0
2018-Jul-16 05:01N 44°43' E 021°03'0 0.0
2018-Jul-16 04:31N 44°43' E 021°03'0 0.0
2018-Jul-16 04:01N 44°43' E 021°03'0 0.0
2018-Jul-16 03:30N 44°43' E 021°03'0 0.0
2018-Jul-16 03:01N 44°43' E 021°03'0 0.0
2018-Jul-16 02:31N 44°43' E 021°03'0 0.0
2018-Jul-16 01:57N 44°43' E 021°03'0 0.0
2018-Jul-16 01:31N 44°43' E 021°03'0 0.0
2018-Jul-16 01:01N 44°43' E 021°03'1 2.7
2018-Jul-16 00:29N 44°43' E 021°01'6 6.2
2018-Jul-15 23:33N 44°40' E 020°54'8 6.1
2018-Jul-15 22:13N 44°41' E 020°43'3 6.3
2018-Jul-15 21:44N 44°44' E 020°40'1 6.6
2018-Jul-15 21:30N 44°45' E 020°39'3 6.0
2018-Jul-15 21:01N 44°48' E 020°38'3 6.0
2018-Jul-15 20:31N 44°51' E 020°38'3 5.9
2018-Jul-15 20:00N 44°51' E 020°34'3 6.2
2018-Jul-15 19:31N 44°50' E 020°30'3 6.4
2018-Jul-15 19:01N 44°51' E 020°26'3 6.6
2018-Jul-15 18:30N 44°53' E 020°22'3 6.5
2018-Jul-15 18:00N 44°55' E 020°20'3 6.8
2018-Jul-15 17:31N 44°58' E 020°17'3 6.1
2018-Jul-15 17:00N 45°00' E 020°21'3 6.0
2018-Jul-15 16:30N 45°03' E 020°21'3 7.0
2018-Jul-15 16:00N 45°06' E 020°18'3 6.2
2018-Jul-15 15:29N 45°09' E 020°17'2 4.5
2018-Jul-15 14:59N 45°11' E 020°19'3 5.8
2018-Jul-15 14:30N 45°14' E 020°19'6 5.3
2018-Jul-15 13:25N 45°19' E 020°15'2 4.2
2018-Jul-15 12:59N 45°21' E 020°16'3 5.6
2018-Jul-15 12:29N 45°22' E 020°12'3 5.3
2018-Jul-15 12:00N 45°25' E 020°13'3 5.3
2018-Jul-15 11:30N 45°27' E 020°12'4 5.9
2018-Jul-15 10:49N 45°30' E 020°08'3 5.9
2018-Jul-15 10:19N 45°33' E 020°06'2 4.9
2018-Jul-15 10:00N 45°34' E 020°07'1 1.4
2018-Jul-15 09:18N 45°35' E 020°08'1 1.7
2018-Jul-15 08:50N 45°34' E 020°07'1 1.3
2018-Jul-15 08:14N 45°35' E 020°08'2 2.9
2018-Jul-15 07:39N 45°36' E 020°06'1 5.3
2018-Jul-15 07:30N 45°35' E 020°05'2 3.6
2018-Jul-15 06:56N 45°37' E 020°05'3 4.7
2018-Jul-15 06:13N 45°41' E 020°05'1 5.1
2018-Jul-15 06:01N 45°42' E 020°06'2 3.5
2018-Jul-15 05:30N 45°43' E 020°08'3 4.4
2018-Jul-15 04:47N 45°46' E 020°09'2 5.8
2018-Jul-15 04:30N 45°47' E 020°09'5 4.5
2018-Jul-15 03:23N 45°52' E 020°06'3 0.1
2018-Jul-14 04:11N 45°55' E 020°06'2 2.0
2018-Jul-14 03:16N 45°53' E 020°08'1 2.6
2018-Jul-14 03:00N 45°53' E 020°07'3 1.7
2018-Jul-14 01:23N 45°50' E 020°07'3 2.6
2018-Jul-14 00:25N 45°48' E 020°09'1 2.8
2018-Jul-13 23:59N 45°47' E 020°09'1 2.6
2018-Jul-13 23:30N 45°45' E 020°09'1 2.5
2018-Jul-13 22:58N 45°44' E 020°10'1 2.6
2018-Jul-13 22:31N 45°43' E 020°09'1 2.7
2018-Jul-13 22:00N 45°43' E 020°07'1 1.7
2018-Jul-13 21:21N 45°42' E 020°06'1 2.7
2018-Jul-13 21:01N 45°41' E 020°06'1 2.1
2018-Jul-13 20:30N 45°40' E 020°06'1 2.5
2018-Jul-13 20:00N 45°39' E 020°07'1 2.8
2018-Jul-13 19:30N 45°38' E 020°06'1 2.8
2018-Jul-13 19:00N 45°37' E 020°05'1 2.1
2018-Jul-13 18:30N 45°36' E 020°04'1 2.5
2018-Jul-13 18:00N 45°35' E 020°05'1 2.7
2018-Jul-13 17:30N 45°36' E 020°07'1 2.3
2018-Jul-13 17:01N 45°35' E 020°08'0 0.2
2018-Jul-13 16:30N 45°35' E 020°08'1 0.9
2018-Jul-13 15:52N 45°35' E 020°07'0 0.6
2018-Jul-13 15:15N 45°35' E 020°08'1 0.9
2018-Jul-13 13:59N 45°34' E 020°06'2 2.5
2018-Jul-13 13:22N 45°32' E 020°06'1 2.4
2018-Jul-13 12:57N 45°32' E 020°06'1 2.5
2018-Jul-13 12:30N 45°31' E 020°07'1 2.5
2018-Jul-13 11:55N 45°30' E 020°09'1 2.8
2018-Jul-13 11:30N 45°29' E 020°10'2 2.8
2018-Jul-13 10:53N 45°27' E 020°11'1 2.9
2018-Jul-13 10:30N 45°27' E 020°13'2 2.7
2018-Jul-13 09:44N 45°25' E 020°13'1 3.0
2018-Jul-13 09:30N 45°24' E 020°13'1 2.7
2018-Jul-13 09:00N 45°23' E 020°12'1 2.8
2018-Jul-13 08:31N 45°22' E 020°13'1 2.9
2018-Jul-13 08:00N 45°21' E 020°15'1 2.5
2018-Jul-13 07:30N 45°20' E 020°16'2 2.8
2018-Jul-13 06:41N 45°18' E 020°14'0 1.0
2018-Jul-13 06:29N 45°18' E 020°14'0 1.0
2018-Jul-13 06:00N 45°17' E 020°14'0 1.0
2018-Jul-13 05:31N 45°18' E 020°14'0 0.0
2018-Jul-13 05:00N 45°18' E 020°14'0 0.0
2018-Jul-13 04:30N 45°18' E 020°14'  

Dump ship's entire track history